Cascade, Washington
Current Conditions -  °F | °C
As of 3:53 AM on Sunday 21 Dec 2014 (Local Time) from KRNT Reporting Station
Clear Clear  
Wind Chill: 52°   Ceiling: Unl
Heat Index: 52°   Visibility: 10mi
Dew Point: 47°   Wind: 8mph
Humidity: 83%   Direction: 180°S
Pressure: 29.73"   Gusts: 20mph
Location:  47.4414°N, 122.121°W
Report Text: KRNT 211153Z AUTO 18007G17KT 10SM CLR 11/08 A2973 RMK AO2 SLP071 60000 70040 T01110083 10133 20111 51043 $
Loading
Personal Weather Stations






























Interactive Weather Map New forecast layout! Learn more

10-Day Weather Forecast

Advertisements
Track Severe Weather on mobile